createdAt,value
2018-01-26T00:00:07.277Z,81.65
2018-01-26T00:02:34.814Z,81.57
2018-01-26T00:05:02.288Z,81.73
2018-01-26T00:07:29.748Z,81.78
2018-01-26T00:09:57.306Z,81.67
2018-01-26T00:12:26.140Z,81.57
2018-01-26T00:14:53.646Z,81.46
2018-01-26T00:17:21.118Z,81.65
2018-01-26T00:19:48.753Z,81.51
2018-01-26T00:22:16.237Z,81.52
2018-01-26T00:24:43.718Z,81.69
2018-01-26T00:27:11.179Z,81.85
2018-01-26T00:29:38.662Z,82.02
2018-01-26T00:32:06.135Z,82.15
2018-01-26T00:34:33.621Z,81.85
2018-01-26T00:37:01.078Z,82.00
2018-01-26T00:39:28.532Z,81.91
2018-01-26T00:41:56.050Z,82.16
2018-01-26T00:44:23.566Z,82.28
2018-01-26T00:46:51.140Z,82.14
2018-01-26T00:49:18.599Z,81.70
2018-01-26T00:51:46.090Z,81.73
2018-01-26T00:54:13.532Z,81.77
2018-01-26T00:56:40.998Z,81.90
2018-01-26T00:59:08.494Z,82.23
2018-01-26T01:01:35.975Z,82.04
2018-01-26T01:04:03.479Z,81.81
2018-01-26T01:06:30.971Z,81.89
2018-01-26T01:08:58.454Z,82.07
2018-01-26T01:11:25.920Z,82.12
2018-01-26T01:13:53.406Z,82.07
2018-01-26T01:16:20.917Z,82.00
2018-01-26T01:18:48.419Z,81.93
2018-01-26T01:21:16.018Z,82.05
2018-01-26T01:23:43.495Z,82.32
2018-01-26T01:26:10.953Z,82.09
2018-01-26T01:28:38.771Z,82.10
2018-01-26T01:31:06.251Z,81.51
2018-01-26T01:33:33.752Z,81.73
2018-01-26T01:36:01.252Z,81.82
2018-01-26T01:38:28.735Z,81.60
2018-01-26T01:40:56.193Z,81.79
2018-01-26T01:43:23.705Z,81.59
2018-01-26T01:45:51.186Z,81.38
2018-01-26T01:48:18.695Z,81.62
2018-01-26T01:50:46.217Z,81.58
2018-01-26T01:53:13.763Z,81.77
2018-01-26T01:55:41.247Z,82.01
2018-01-26T01:58:08.753Z,81.68
2018-01-26T02:00:36.262Z,81.77
2018-01-26T02:03:03.859Z,81.86
2018-01-26T02:05:31.356Z,81.84
2018-01-26T02:07:58.864Z,82.20
2018-01-26T02:10:26.400Z,82.32
2018-01-26T02:12:53.850Z,82.42
2018-01-26T02:15:21.333Z,82.59
2018-01-26T02:17:48.809Z,82.66
2018-01-26T02:20:16.302Z,82.56
2018-01-26T02:22:43.775Z,82.58
2018-01-26T02:25:11.282Z,82.50
2018-01-26T02:27:38.745Z,82.64
2018-01-26T02:30:06.233Z,82.71
2018-01-26T02:32:34.240Z,82.69
2018-01-26T02:35:01.739Z,82.78
2018-01-26T02:37:29.193Z,82.75
2018-01-26T02:39:56.663Z,82.65
2018-01-26T02:42:24.366Z,82.92
2018-01-26T02:44:51.832Z,82.65
2018-01-26T02:47:19.334Z,82.82
2018-01-26T02:49:46.798Z,83.05
2018-01-26T02:52:14.418Z,82.61
2018-01-26T02:54:42.239Z,82.79
2018-01-26T02:57:09.765Z,82.68
2018-01-26T02:59:37.249Z,82.77
2018-01-26T03:02:04.858Z,82.94
2018-01-26T03:04:32.464Z,83.15
2018-01-26T03:06:59.975Z,83.46
2018-01-26T03:09:27.494Z,83.14
2018-01-26T03:11:54.943Z,83.47
2018-01-26T03:14:22.430Z,83.85
2018-01-26T03:16:49.935Z,83.77
2018-01-26T03:19:17.453Z,83.51
2018-01-26T03:21:44.926Z,83.68
2018-01-26T03:24:12.469Z,83.62
2018-01-26T03:26:39.941Z,83.70
2018-01-26T03:29:07.482Z,84.20
2018-01-26T03:31:35.015Z,84.58
2018-01-26T03:34:02.979Z,84.87
2018-01-26T03:36:30.590Z,85.28
2018-01-26T03:38:58.068Z,85.48
2018-01-26T03:41:25.598Z,85.39
2018-01-26T03:43:53.142Z,85.33
2018-01-26T03:46:20.694Z,85.59
2018-01-26T03:48:48.191Z,85.38
2018-01-26T03:51:16.499Z,85.57
2018-01-26T03:53:43.957Z,86.13
2018-01-26T03:56:11.464Z,86.30
2018-01-26T11:56:14.506Z,79.91
2018-01-26T11:58:41.966Z,78.88
2018-01-26T12:01:09.418Z,78.79
2018-01-26T12:03:36.941Z,78.31
2018-01-26T12:06:04.467Z,78.32
2018-01-26T12:08:32.050Z,78.43
2018-01-26T12:10:59.588Z,78.27
2018-01-26T12:13:27.453Z,78.15
2018-01-26T12:15:56.749Z,78.14
2018-01-26T12:18:25.214Z,78.32
2018-01-26T12:20:52.658Z,77.88
2018-01-26T12:23:20.379Z,77.32
2018-01-26T12:25:48.402Z,77.21
2018-01-26T12:28:17.138Z,76.93
2018-01-26T12:30:45.389Z,77.22
2018-01-26T12:33:13.110Z,77.56
2018-01-26T12:35:41.583Z,77.50
2018-01-26T12:38:09.058Z,76.72
2018-01-26T12:40:38.986Z,76.23
2018-01-26T12:43:07.694Z,75.26
2018-01-26T12:45:43.944Z,75.03
2018-01-26T12:48:13.302Z,74.21
2018-01-26T12:50:41.174Z,74.34
2018-01-26T12:53:10.273Z,74.79
2018-01-26T12:58:28.331Z,74.96
2018-01-26T13:00:59.320Z,73.83
2018-01-26T13:03:27.394Z,74.10
2018-01-26T13:05:55.010Z,74.50
2018-01-26T13:08:22.506Z,75.13
2018-01-26T13:10:51.055Z,76.12
2018-01-26T13:13:18.790Z,76.48
2018-01-26T13:15:46.305Z,76.57
2018-01-26T13:18:14.001Z,76.69
2018-01-26T13:20:42.197Z,76.97
2018-01-26T13:23:09.820Z,76.78
2018-01-26T13:25:37.508Z,77.12
2018-01-26T13:28:04.995Z,77.03
2018-01-26T13:30:32.618Z,77.06
2018-01-26T13:33:00.637Z,77.25
2018-01-26T13:35:29.070Z,77.58
2018-01-26T13:37:57.031Z,77.76
2018-01-26T13:40:24.707Z,77.75
2018-01-26T13:42:53.775Z,77.94
2018-01-26T13:50:47.162Z,78.27
2018-01-26T13:53:17.243Z,78.40
2018-01-26T13:55:45.204Z,78.44
2018-01-26T13:58:17.727Z,78.08
2018-01-26T14:00:50.344Z,78.21
2018-01-26T14:06:19.446Z,78.40
2018-01-26T14:21:33.066Z,78.92
2018-01-26T14:29:49.265Z,79.17
2018-01-26T14:32:17.530Z,79.17
2018-01-26T14:35:03.360Z,79.29
2018-01-26T14:37:46.798Z,79.29
2018-01-26T14:40:18.175Z,78.94
2018-01-26T14:46:01.902Z,79.86
2018-01-26T14:48:43.671Z,79.83
2018-01-26T14:51:13.740Z,80.07
2018-01-26T14:56:38.563Z,80.03
2018-01-26T14:59:06.330Z,80.27
2018-01-26T15:04:39.547Z,81.03
2018-01-26T15:07:07.328Z,81.00
2018-01-26T15:09:34.920Z,81.25
2018-01-26T15:12:02.461Z,81.35
2018-01-26T15:14:30.148Z,81.41
2018-01-26T15:16:57.711Z,81.48
2018-01-26T15:19:25.185Z,81.32
2018-01-26T15:21:52.702Z,81.56
2018-01-26T15:24:20.253Z,81.60
2018-01-26T15:26:47.749Z,81.64
2018-01-26T15:29:15.254Z,81.59
2018-01-26T15:31:42.768Z,81.90
2018-01-26T15:34:10.394Z,81.96
2018-01-26T15:36:37.940Z,81.91
2018-01-26T15:39:07.594Z,82.20
2018-01-26T15:41:35.310Z,82.63
2018-01-26T15:44:12.096Z,82.73
2018-01-26T15:46:40.383Z,82.81
2018-01-26T15:49:09.051Z,82.94
2018-01-26T15:51:49.271Z,83.06
2018-01-26T15:57:02.899Z,83.26
2018-01-26T16:09:10.525Z,83.97
2018-01-26T16:11:37.990Z,84.28
2018-01-26T16:14:05.641Z,84.56
2018-01-26T16:16:33.405Z,84.71
2018-01-26T16:19:01.302Z,84.72
2018-01-26T16:21:29.183Z,83.93
2018-01-26T16:23:56.676Z,84.12
2018-01-26T16:26:24.255Z,84.58
2018-01-26T16:28:55.100Z,84.67
2018-01-26T16:31:22.745Z,84.27
2018-01-26T16:33:50.322Z,84.59
2018-01-26T16:36:18.033Z,84.83
2018-01-26T16:38:45.523Z,84.75
2018-01-26T16:41:13.053Z,84.91
2018-01-26T16:43:40.556Z,84.82
2018-01-26T16:46:08.075Z,84.56
2018-01-26T16:48:35.626Z,84.77
2018-01-26T16:51:03.239Z,84.51
2018-01-26T16:53:31.365Z,84.47
2018-01-26T16:55:58.901Z,84.65
2018-01-26T16:58:26.567Z,84.15
2018-01-26T17:00:54.600Z,84.01
2018-01-26T17:03:22.956Z,84.29
2018-01-26T17:05:50.560Z,84.25
2018-01-26T17:08:18.082Z,84.60
2018-01-26T17:10:46.121Z,84.59
2018-01-26T17:13:13.830Z,84.42
2018-01-26T17:15:41.319Z,84.77
2018-01-26T17:18:08.811Z,84.87
2018-01-26T17:20:38.273Z,84.86
2018-01-26T17:23:05.929Z,84.96
2018-01-26T17:28:08.272Z,85.09
2018-01-26T17:30:40.294Z,85.17
2018-01-26T17:33:07.830Z,85.22
2018-01-26T17:35:35.360Z,84.93
2018-01-26T17:38:02.902Z,84.77
2018-01-26T17:40:30.446Z,84.96
2018-01-26T17:42:57.975Z,85.09
2018-01-26T17:45:26.270Z,85.07
2018-01-26T17:47:53.841Z,85.10
2018-01-26T17:50:21.521Z,85.18
2018-01-26T17:52:49.201Z,85.26
2018-01-26T17:55:17.514Z,85.55
2018-01-26T17:57:45.080Z,85.91
2018-01-26T18:00:12.650Z,86.15
2018-01-26T18:02:40.518Z,86.30
2018-01-26T18:05:08.207Z,86.58
2018-01-26T18:07:35.800Z,86.63
2018-01-26T18:10:03.541Z,86.97
2018-01-26T18:12:31.971Z,87.21
2018-01-26T18:14:59.554Z,87.49
2018-01-26T18:17:27.172Z,87.62
2018-01-26T18:31:33.899Z,88.22
2018-01-26T18:34:01.405Z,88.24
2018-01-26T18:36:29.073Z,88.47
2018-01-26T18:38:56.662Z,88.21
2018-01-26T18:41:24.208Z,88.62
2018-01-26T18:43:51.881Z,88.70
2018-01-26T18:46:21.444Z,88.86
2018-01-26T18:48:49.813Z,88.57
2018-01-26T18:51:18.934Z,88.52
2018-01-26T18:53:46.536Z,88.72
2018-01-26T18:56:14.088Z,88.93
2018-01-26T18:58:42.482Z,88.80
2018-01-26T19:01:10.051Z,88.63
2018-01-26T19:03:37.652Z,88.75
2018-01-26T19:06:05.352Z,88.28
2018-01-26T19:08:36.532Z,88.40
2018-01-26T19:11:04.046Z,88.52
2018-01-26T19:13:31.665Z,88.40
2018-01-26T19:15:59.255Z,88.61
2018-01-26T19:18:27.003Z,88.72
2018-01-26T19:20:54.572Z,88.77
2018-01-26T19:23:23.372Z,88.76
2018-01-26T19:25:52.866Z,88.70
2018-01-26T19:28:20.590Z,88.51
2018-01-26T19:30:51.063Z,88.58
2018-01-26T19:33:18.941Z,88.64
2018-01-26T19:35:46.569Z,88.40
2018-01-26T19:38:14.532Z,88.43
2018-01-26T19:40:42.086Z,88.55
2018-01-26T19:43:10.559Z,88.68
2018-01-26T19:45:41.301Z,88.70
2018-01-26T19:48:09.161Z,88.34
2018-01-26T19:50:37.024Z,88.09
2018-01-26T19:53:08.458Z,87.94
2018-01-26T19:55:37.686Z,87.78
2018-01-26T19:58:05.652Z,87.98
2018-01-26T20:00:33.544Z,88.08
2018-01-26T20:20:19.390Z,89.51
2018-01-26T20:22:49.798Z,89.77
2018-01-26T20:25:18.057Z,90.15
2018-01-26T20:46:50.926Z,90.30
2018-01-26T20:49:20.654Z,90.29
2018-01-26T20:51:51.395Z,90.40
2018-01-26T20:54:20.884Z,90.53
2018-01-26T20:56:50.153Z,90.50
2018-01-26T21:02:29.316Z,89.99
2018-01-26T21:04:59.694Z,89.96
2018-01-26T21:07:29.398Z,90.09
2018-01-26T21:09:57.391Z,90.09
2018-01-26T21:12:25.230Z,90.28
2018-01-26T21:14:56.688Z,90.04
2018-01-26T21:17:24.347Z,90.15
2018-01-26T21:19:51.864Z,89.96
2018-01-26T21:22:19.349Z,89.78
2018-01-26T21:24:47.101Z,89.49
2018-01-26T21:27:16.511Z,89.06
2018-01-26T21:29:44.121Z,88.78
2018-01-26T21:32:11.638Z,88.78
2018-01-26T21:34:42.599Z,88.77
2018-01-26T21:45:04.719Z,88.62
2018-01-26T22:04:57.804Z,86.78
2018-01-26T22:07:31.066Z,86.82
2018-01-26T22:26:07.680Z,86.49
2018-01-26T22:28:40.067Z,86.31
2018-01-26T22:31:07.807Z,86.24
2018-01-26T22:33:35.892Z,85.80
2018-01-26T22:36:05.719Z,85.71
2018-01-26T22:38:34.079Z,85.45
2018-01-26T22:41:02.547Z,85.65
2018-01-26T22:43:35.988Z,85.54
2018-01-26T22:46:12.505Z,85.81
2018-01-26T22:48:42.329Z,85.52
2018-01-26T22:51:10.643Z,85.25
2018-01-26T22:53:41.374Z,85.50
2018-01-26T22:56:09.142Z,85.70
2018-01-26T22:58:42.848Z,85.70
2018-01-26T23:01:11.315Z,85.34
2018-01-26T23:03:38.905Z,85.33
2018-01-26T23:06:06.756Z,85.02
2018-01-26T23:11:09.070Z,84.93
2018-01-26T23:13:36.766Z,84.50
2018-01-26T23:16:04.381Z,84.19
2018-01-26T23:18:32.077Z,84.11
2018-01-26T23:20:59.689Z,83.92
2018-01-26T23:23:27.347Z,83.90
2018-01-26T23:25:55.056Z,83.88
2018-01-26T23:28:23.240Z,84.21
2018-01-26T23:30:50.763Z,84.47
2018-01-26T23:33:21.017Z,84.90
2018-01-26T23:35:48.815Z,84.83
2018-01-26T23:38:16.412Z,84.75
2018-01-26T23:40:43.968Z,84.61
2018-01-26T23:43:11.452Z,84.92
2018-01-26T23:45:39.003Z,85.31
2018-01-26T23:48:06.493Z,85.43
2018-01-26T23:50:34.037Z,85.11
2018-01-26T23:53:01.506Z,85.36
2018-01-26T23:55:29.001Z,85.66
2018-01-26T23:57:56.470Z,85.43
